sensor_id;sensor_type;location;lat;lon;timestamp;pressure;altitude;pressure_sealevel;temperature;humidity
27984;BME280;15317;50.360;8.726;2024-01-06T00:01:31;98209.06;;;3.37;100.00
27984;BME280;15317;50.360;8.726;2024-01-06T00:06:34;98222.19;;;3.40;100.00
27984;BME280;15317;50.360;8.726;2024-01-06T00:11:38;98225.34;;;3.26;100.00
27984;BME280;15317;50.360;8.726;2024-01-06T00:16:43;98236.50;;;3.02;100.00
27984;BME280;15317;50.360;8.726;2024-01-06T00:21:46;98226.78;;;2.82;100.00
27984;BME280;15317;50.360;8.726;2024-01-06T00:26:50;98238.94;;;2.57;100.00
27984;BME280;15317;50.360;8.726;2024-01-06T00:31:55;98242.16;;;2.32;100.00
27984;BME280;15317;50.360;8.726;2024-01-06T00:36:58;98249.28;;;2.12;100.00
27984;BME280;15317;50.360;8.726;2024-01-06T00:42:02;98251.53;;;1.97;100.00
27984;BME280;15317;50.360;8.726;2024-01-06T00:47:06;98264.50;;;2.02;100.00
27984;BME280;15317;50.360;8.726;2024-01-06T00:52:10;98261.94;;;2.01;100.00
27984;BME280;15317;50.360;8.726;2024-01-06T00:57:13;98276.91;;;2.13;100.00
27984;BME280;15317;50.360;8.726;2024-01-06T01:02:18;98268.06;;;2.22;100.00
27984;BME280;15317;50.360;8.726;2024-01-06T01:07:21;98277.13;;;2.40;100.00
27984;BME280;15317;50.360;8.726;2024-01-06T01:12:24;98278.56;;;2.54;100.00
27984;BME280;15317;50.360;8.726;2024-01-06T01:17:29;98280.97;;;2.66;100.00
27984;BME280;15317;50.360;8.726;2024-01-06T01:22:33;98284.66;;;2.85;100.00
27984;BME280;15317;50.360;8.726;2024-01-06T01:27:36;98284.94;;;2.91;100.00
27984;BME280;15317;50.360;8.726;2024-01-06T01:32:41;98287.78;;;2.99;100.00
27984;BME280;15317;50.360;8.726;2024-01-06T01:37:45;98287.06;;;3.07;100.00
27984;BME280;15317;50.360;8.726;2024-01-06T01:42:48;98277.59;;;3.12;100.00
27984;BME280;15317;50.360;8.726;2024-01-06T01:47:53;98286.19;;;3.16;100.00
27984;BME280;15317;50.360;8.726;2024-01-06T01:52:57;98295.09;;;3.16;100.00
27984;BME280;15317;50.360;8.726;2024-01-06T01:58:02;98293.53;;;3.14;100.00
27984;BME280;15317;50.360;8.726;2024-01-06T02:03:07;98310.06;;;3.19;100.00
27984;BME280;15317;50.360;8.726;2024-01-06T02:08:12;98312.88;;;3.17;100.00
27984;BME280;15317;50.360;8.726;2024-01-06T02:13:15;98312.03;;;3.17;100.00
27984;BME280;15317;50.360;8.726;2024-01-06T02:18:20;98318.81;;;3.21;100.00
27984;BME280;15317;50.360;8.726;2024-01-06T02:23:25;98321.34;;;3.23;100.00
27984;BME280;15317;50.360;8.726;2024-01-06T02:28:28;98325.59;;;3.25;100.00
27984;BME280;15317;50.360;8.726;2024-01-06T02:33:32;98326.44;;;3.26;100.00
27984;BME280;15317;50.360;8.726;2024-01-06T02:38:37;98325.28;;;3.28;100.00
27984;BME280;15317;50.360;8.726;2024-01-06T02:43:40;98330.38;;;3.31;100.00
27984;BME280;15317;50.360;8.726;2024-01-06T02:48:43;98324.75;;;3.34;100.00
27984;BME280;15317;50.360;8.726;2024-01-06T02:53:49;98333.22;;;3.39;100.00
27984;BME280;15317;50.360;8.726;2024-01-06T02:58:52;98331.50;;;3.38;100.00
27984;BME280;15317;50.360;8.726;2024-01-06T03:03:55;98339.69;;;3.37;100.00
27984;BME280;15317;50.360;8.726;2024-01-06T03:09:00;98342.53;;;3.35;100.00
27984;BME280;15317;50.360;8.726;2024-01-06T03:14:04;98346.50;;;3.41;100.00
27984;BME280;15317;50.360;8.726;2024-01-06T03:19:07;98348.75;;;3.45;100.00
27984;BME280;15317;50.360;8.726;2024-01-06T03:24:12;98351.84;;;3.50;100.00
27984;BME280;15317;50.360;8.726;2024-01-06T03:29:15;98345.03;;;3.56;100.00
27984;BME280;15317;50.360;8.726;2024-01-06T03:34:19;98349.16;;;3.60;100.00
27984;BME280;15317;50.360;8.726;2024-01-06T03:39:24;98359.03;;;3.60;100.00
27984;BME280;15317;50.360;8.726;2024-01-06T03:44:27;98350.00;;;3.61;100.00
27984;BME280;15317;50.360;8.726;2024-01-06T03:49:32;98357.75;;;3.64;100.00
27984;BME280;15317;50.360;8.726;2024-01-06T03:54:37;98361.16;;;3.66;100.00
27984;BME280;15317;50.360;8.726;2024-01-06T03:59:41;98355.63;;;3.67;100.00
27984;BME280;15317;50.360;8.726;2024-01-06T04:04:45;98362.53;;;3.70;100.00
27984;BME280;15317;50.360;8.726;2024-01-06T04:09:50;98365.53;;;3.67;100.00
27984;BME280;15317;50.360;8.726;2024-01-06T04:14:54;98361.41;;;3.63;100.00
27984;BME280;15317;50.360;8.726;2024-01-06T04:19:58;98370.50;;;3.62;100.00
27984;BME280;15317;50.360;8.726;2024-01-06T04:25:03;98371.31;;;3.62;100.00
27984;BME280;15317;50.360;8.726;2024-01-06T04:30:07;98376.69;;;3.62;100.00
27984;BME280;15317;50.360;8.726;2024-01-06T04:35:11;98378.38;;;3.63;100.00
27984;BME280;15317;50.360;8.726;2024-01-06T04:40:16;98389.97;;;3.64;100.00
27984;BME280;15317;50.360;8.726;2024-01-06T04:45:19;98397.03;;;3.65;100.00
27984;BME280;15317;50.360;8.726;2024-01-06T04:50:25;98399.44;;;3.68;100.00
27984;BME280;15317;50.360;8.726;2024-01-06T04:55:30;98409.47;;;3.75;100.00
27984;BME280;15317;50.360;8.726;2024-01-06T05:00:33;98402.94;;;3.78;100.00
27984;BME280;15317;50.360;8.726;2024-01-06T05:05:38;98390.50;;;3.77;100.00
27984;BME280;15317;50.360;8.726;2024-01-06T05:10:44;98394.34;;;3.74;100.00
27984;BME280;15317;50.360;8.726;2024-01-06T05:15:51;98399.84;;;3.73;100.00
27984;BME280;15317;50.360;8.726;2024-01-06T05:20:54;98396.19;;;3.74;100.00
27984;BME280;15317;50.360;8.726;2024-01-06T05:25:59;98406.34;;;3.70;100.00
27984;BME280;15317;50.360;8.726;2024-01-06T05:31:03;98413.41;;;3.71;100.00
27984;BME280;15317;50.360;8.726;2024-01-06T05:36:07;98411.72;;;3.70;100.00
27984;BME280;15317;50.360;8.726;2024-01-06T05:41:11;98408.34;;;3.68;100.00
27984;BME280;15317;50.360;8.726;2024-01-06T05:46:20;98411.59;;;3.72;100.00
27984;BME280;15317;50.360;8.726;2024-01-06T05:51:23;98414.13;;;3.73;100.00
27984;BME280;15317;50.360;8.726;2024-01-06T05:56:28;98416.81;;;3.73;100.00
27984;BME280;15317;50.360;8.726;2024-01-06T06:01:31;98426.00;;;3.71;100.00
27984;BME280;15317;50.360;8.726;2024-01-06T06:06:35;98428.69;;;3.71;100.00
27984;BME280;15317;50.360;8.726;2024-01-06T06:11:41;98434.91;;;3.71;100.00
27984;BME280;15317;50.360;8.726;2024-01-06T06:16:45;98435.88;;;3.70;100.00
27984;BME280;15317;50.360;8.726;2024-01-06T06:21:50;98439.16;;;3.74;100.00
27984;BME280;15317;50.360;8.726;2024-01-06T06:26:56;98451.59;;;3.75;100.00
27984;BME280;15317;50.360;8.726;2024-01-06T06:31:59;98463.59;;;3.71;100.00
27984;BME280;15317;50.360;8.726;2024-01-06T06:37:02;98470.53;;;3.73;100.00
27984;BME280;15317;50.360;8.726;2024-01-06T06:42:07;98470.66;;;3.72;100.00
27984;BME280;15317;50.360;8.726;2024-01-06T06:47:10;98490.19;;;3.74;100.00
27984;BME280;15317;50.360;8.726;2024-01-06T06:52:13;98486.50;;;3.75;100.00
27984;BME280;15317;50.360;8.726;2024-01-06T06:57:18;98503.75;;;3.82;100.00
27984;BME280;15317;50.360;8.726;2024-01-06T07:02:21;98514.50;;;3.82;100.00
27984;BME280;15317;50.360;8.726;2024-01-06T07:07:25;98516.59;;;3.78;100.00
27984;BME280;15317;50.360;8.726;2024-01-06T07:12:30;98516.59;;;3.78;100.00
27984;BME280;15317;50.360;8.726;2024-01-06T07:17:33;98541.63;;;3.79;100.00
27984;BME280;15317;50.360;8.726;2024-01-06T07:22:37;98537.94;;;3.80;100.00
27984;BME280;15317;50.360;8.726;2024-01-06T07:27:42;98544.31;;;3.79;100.00
27984;BME280;15317;50.360;8.726;2024-01-06T07:32:45;98540.34;;;3.83;100.00
27984;BME280;15317;50.360;8.726;2024-01-06T07:37:49;98547.72;;;3.81;100.00
27984;BME280;15317;50.360;8.726;2024-01-06T07:42:54;98560.41;;;3.79;100.00
27984;BME280;15317;50.360;8.726;2024-01-06T07:47:57;98564.09;;;3.78;100.00
27984;BME280;15317;50.360;8.726;2024-01-06T07:53:01;98565.78;;;3.79;100.00
27984;BME280;15317;50.360;8.726;2024-01-06T07:58:06;98572.88;;;3.80;100.00
27984;BME280;15317;50.360;8.726;2024-01-06T08:03:09;98585.13;;;3.82;100.00
27984;BME280;15317;50.360;8.726;2024-01-06T08:08:14;98588.41;;;3.86;100.00
27984;BME280;15317;50.360;8.726;2024-01-06T08:13:20;98596.22;;;3.89;100.00
27984;BME280;15317;50.360;8.726;2024-01-06T08:18:23;98606.66;;;3.92;100.00
27984;BME280;15317;50.360;8.726;2024-01-06T08:23:26;98615.44;;;3.94;100.00
27984;BME280;15317;50.360;8.726;2024-01-06T08:28:31;98615.59;;;4.02;100.00
27984;BME280;15317;50.360;8.726;2024-01-06T08:33:34;98622.63;;;4.03;100.00
27984;BME280;15317;50.360;8.726;2024-01-06T08:38:38;98614.56;;;4.03;100.00
27984;BME280;15317;50.360;8.726;2024-01-06T08:43:42;98621.53;;;4.06;100.00
27984;BME280;15317;50.360;8.726;2024-01-06T08:48:46;98626.31;;;4.12;100.00
27984;BME280;15317;50.360;8.726;2024-01-06T08:53:49;98634.13;;;4.15;100.00
27984;BME280;15317;50.360;8.726;2024-01-06T08:58:54;98643.31;;;4.12;100.00
27984;BME280;15317;50.360;8.726;2024-01-06T09:03:58;98641.34;;;4.14;100.00
27984;BME280;15317;50.360;8.726;2024-01-06T09:09:03;98651.53;;;4.20;100.00
27984;BME280;15317;50.360;8.726;2024-01-06T09:14:08;98648.53;;;4.23;100.00
27984;BME280;15317;50.360;8.726;2024-01-06T09:19:12;98661.44;;;4.29;100.00
27984;BME280;15317;50.360;8.726;2024-01-06T09:24:16;98666.38;;;4.44;100.00
27984;BME280;15317;50.360;8.726;2024-01-06T09:29:21;98678.81;;;4.45;100.00
27984;BME280;15317;50.360;8.726;2024-01-06T09:34:25;98682.66;;;4.52;100.00
27984;BME280;15317;50.360;8.726;2024-01-06T09:39:28;98692.41;;;4.53;100.00
27984;BME280;15317;50.360;8.726;2024-01-06T09:44:34;98692.84;;;4.58;100.00
27984;BME280;15317;50.360;8.726;2024-01-06T09:49:38;98690.88;;;4.60;100.00
27984;BME280;15317;50.360;8.726;2024-01-06T09:54:50;98693.28;;;4.63;100.00
27984;BME280;15317;50.360;8.726;2024-01-06T09:59:56;98693.69;;;4.68;100.00
27984;BME280;15317;50.360;8.726;2024-01-06T10:04:59;98693.97;;;4.74;100.00
27984;BME280;15317;50.360;8.726;2024-01-06T10:10:03;98700.34;;;4.83;100.00
27984;BME280;15317;50.360;8.726;2024-01-06T10:15:10;98705.28;;;4.78;100.00
27984;BME280;15317;50.360;8.726;2024-01-06T10:20:14;98709.09;;;4.85;100.00
27984;BME280;15317;50.360;8.726;2024-01-06T10:25:23;98708.41;;;4.83;100.00
27984;BME280;15317;50.360;8.726;2024-01-06T10:30:28;98707.00;;;4.79;100.00
27984;BME280;15317;50.360;8.726;2024-01-06T10:35:32;98712.69;;;4.76;100.00
27984;BME280;15317;50.360;8.726;2024-01-06T10:40:35;98711.81;;;4.75;100.00
27984;BME280;15317;50.360;8.726;2024-01-06T10:45:39;98725.13;;;4.77;100.00
27984;BME280;15317;50.360;8.726;2024-01-06T10:50:43;98736.00;;;4.85;100.00
27984;BME280;15317;50.360;8.726;2024-01-06T10:55:49;98730.78;;;4.93;100.00
27984;BME280;15317;50.360;8.726;2024-01-06T11:00:58;98725.38;;;4.93;100.00
27984;BME280;15317;50.360;8.726;2024-01-06T11:06:02;98723.25;;;5.06;100.00
27984;BME280;15317;50.360;8.726;2024-01-06T11:11:06;98721.13;;;5.10;100.00
27984;BME280;15317;50.360;8.726;2024-01-06T11:16:11;98722.53;;;5.24;100.00
27984;BME280;15317;50.360;8.726;2024-01-06T11:21:16;98712.88;;;5.31;100.00
27984;BME280;15317;50.360;8.726;2024-01-06T11:26:21;98706.19;;;5.35;100.00
27984;BME280;15317;50.360;8.726;2024-01-06T11:31:30;98705.13;;;5.55;100.00
27984;BME280;15317;50.360;8.726;2024-01-06T11:36:34;98705.97;;;5.65;100.00
27984;BME280;15317;50.360;8.726;2024-01-06T11:41:48;98698.81;;;5.74;100.00
27984;BME280;15317;50.360;8.726;2024-01-06T11:46:56;98702.94;;;5.68;100.00
27984;BME280;15317;50.360;8.726;2024-01-06T11:52:00;98693.88;;;5.69;100.00
27984;BME280;15317;50.360;8.726;2024-01-06T11:57:04;98694.72;;;5.70;100.00
27984;BME280;15317;50.360;8.726;2024-01-06T12:02:11;98695.78;;;5.59;100.00
27984;BME280;15317;50.360;8.726;2024-01-06T12:07:16;98692.50;;;5.55;100.00
27984;BME280;15317;50.360;8.726;2024-01-06T12:12:19;98689.97;;;5.54;100.00
27984;BME280;15317;50.360;8.726;2024-01-06T12:17:28;98683.59;;;5.55;100.00
27984;BME280;15317;50.360;8.726;2024-01-06T12:22:32;98687.69;;;5.59;100.00
27984;BME280;15317;50.360;8.726;2024-01-06T12:27:35;98692.38;;;5.57;100.00
27984;BME280;15317;50.360;8.726;2024-01-06T12:32:41;98695.00;;;5.67;100.00
27984;BME280;15317;50.360;8.726;2024-01-06T12:37:45;98694.63;;;5.62;100.00
27984;BME280;15317;50.360;8.726;2024-01-06T12:42:48;98694.94;;;5.59;100.00
27984;BME280;15317;50.360;8.726;2024-01-06T12:47:53;98700.34;;;5.49;100.00
27984;BME280;15317;50.360;8.726;2024-01-06T12:52:57;98698.94;;;5.45;100.00
27984;BME280;15317;50.360;8.726;2024-01-06T12:58:00;98697.53;;;5.41;100.00
27984;BME280;15317;50.360;8.726;2024-01-06T13:03:07;98709.72;;;5.35;100.00
27984;BME280;15317;50.360;8.726;2024-01-06T13:08:11;98717.69;;;5.37;100.00
27984;BME280;15317;50.360;8.726;2024-01-06T13:13:14;98717.94;;;5.43;100.00
27984;BME280;15317;50.360;8.726;2024-01-06T13:18:19;98719.38;;;5.38;100.00
27984;BME280;15317;50.360;8.726;2024-01-06T13:23:23;98724.44;;;5.41;100.00
27984;BME280;15317;50.360;8.726;2024-01-06T13:28:26;98737.25;;;5.39;100.00
27984;BME280;15317;50.360;8.726;2024-01-06T13:33:31;98736.78;;;5.43;100.00
27984;BME280;15317;50.360;8.726;2024-01-06T13:38:34;98738.31;;;5.46;100.00
27984;BME280;15317;50.360;8.726;2024-01-06T13:43:38;98740.34;;;5.44;100.00
27984;BME280;15317;50.360;8.726;2024-01-06T13:48:43;98740.59;;;5.50;100.00
27984;BME280;15317;50.360;8.726;2024-01-06T13:53:46;98752.50;;;5.48;100.00
27984;BME280;15317;50.360;8.726;2024-01-06T13:58:49;98760.44;;;5.49;100.00
27984;BME280;15317;50.360;8.726;2024-01-06T14:03:55;98765.97;;;5.48;100.00
27984;BME280;15317;50.360;8.726;2024-01-06T14:09:00;98766.28;;;5.45;100.00
27984;BME280;15317;50.360;8.726;2024-01-06T14:14:04;98773.34;;;5.46;100.00
27984;BME280;15317;50.360;8.726;2024-01-06T14:19:08;98769.56;;;5.39;100.00
27984;BME280;15317;50.360;8.726;2024-01-06T14:24:12;98774.09;;;5.38;100.00
27984;BME280;15317;50.360;8.726;2024-01-06T14:29:16;98783.28;;;5.36;100.00
27984;BME280;15317;50.360;8.726;2024-01-06T14:34:20;98784.28;;;5.35;100.00
27984;BME280;15317;50.360;8.726;2024-01-06T14:39:24;98785.56;;;5.31;100.00
27984;BME280;15317;50.360;8.726;2024-01-06T14:44:28;98793.78;;;5.29;100.00
27984;BME280;15317;50.360;8.726;2024-01-06T14:49:33;98786.84;;;5.27;100.00
27984;BME280;15317;50.360;8.726;2024-01-06T14:54:36;98794.38;;;5.23;100.00
27984;BME280;15317;50.360;8.726;2024-01-06T14:59:41;98802.16;;;5.16;100.00
27984;BME280;15317;50.360;8.726;2024-01-06T15:04:46;98805.13;;;5.13;100.00
27984;BME280;15317;50.360;8.726;2024-01-06T15:09:50;98811.50;;;5.12;100.00
27984;BME280;15317;50.360;8.726;2024-01-06T15:14:53;98823.28;;;5.11;100.00
27984;BME280;15317;50.360;8.726;2024-01-06T15:19:58;98815.47;;;5.08;100.00
27984;BME280;15317;50.360;8.726;2024-01-06T15:25:01;98819.44;;;5.04;100.00
27984;BME280;15317;50.360;8.726;2024-01-06T15:30:08;98831.34;;;5.02;100.00
27984;BME280;15317;50.360;8.726;2024-01-06T15:35:13;98835.44;;;4.96;100.00
27984;BME280;15317;50.360;8.726;2024-01-06T15:40:16;98836.69;;;4.92;100.00
27984;BME280;15317;50.360;8.726;2024-01-06T15:45:19;98838.97;;;4.87;100.00
27984;BME280;15317;50.360;8.726;2024-01-06T15:50:24;98836.56;;;4.84;100.00
27984;BME280;15317;50.360;8.726;2024-01-06T15:55:27;98834.88;;;4.83;100.00
27984;BME280;15317;50.360;8.726;2024-01-06T16:00:31;98842.09;;;4.83;100.00
27984;BME280;15317;50.360;8.726;2024-01-06T16:05:40;98841.06;;;4.74;100.00
27984;BME280;15317;50.360;8.726;2024-01-06T16:10:44;98847.72;;;4.70;100.00
27984;BME280;15317;50.360;8.726;2024-01-06T16:15:48;98846.41;;;4.64;100.00
27984;BME280;15317;50.360;8.726;2024-01-06T16:20:52;98854.91;;;4.60;100.00
27984;BME280;15317;50.360;8.726;2024-01-06T16:25:56;98849.97;;;4.55;100.00
27984;BME280;15317;50.360;8.726;2024-01-06T16:31:00;98858.72;;;4.48;100.00
27984;BME280;15317;50.360;8.726;2024-01-06T16:36:05;98869.59;;;4.46;100.00
27984;BME280;15317;50.360;8.726;2024-01-06T16:41:12;98871.44;;;4.46;100.00
27984;BME280;15317;50.360;8.726;2024-01-06T16:46:15;98880.22;;;4.48;100.00
27984;BME280;15317;50.360;8.726;2024-01-06T16:51:20;98882.19;;;4.46;100.00
27984;BME280;15317;50.360;8.726;2024-01-06T16:56:23;98887.56;;;4.46;100.00
27984;BME280;15317;50.360;8.726;2024-01-06T17:01:27;98885.84;;;4.45;100.00
27984;BME280;15317;50.360;8.726;2024-01-06T17:06:32;98906.13;;;4.49;100.00
27984;BME280;15317;50.360;8.726;2024-01-06T17:11:36;98902.28;;;4.51;100.00
27984;BME280;15317;50.360;8.726;2024-01-06T17:16:39;98905.53;;;4.45;100.00
27984;BME280;15317;50.360;8.726;2024-01-06T17:21:43;98918.84;;;4.47;100.00
27984;BME280;15317;50.360;8.726;2024-01-06T17:26:47;98915.91;;;4.50;100.00
27984;BME280;15317;50.360;8.726;2024-01-06T17:31:50;98919.03;;;4.55;100.00
27984;BME280;15317;50.360;8.726;2024-01-06T17:36:55;98924.41;;;4.55;100.00
27984;BME280;15317;50.360;8.726;2024-01-06T17:41:58;98927.81;;;4.57;100.00
27984;BME280;15317;50.360;8.726;2024-01-06T17:47:02;98920.72;;;4.56;100.00
27984;BME280;15317;50.360;8.726;2024-01-06T17:52:07;98924.28;;;4.56;100.00
27984;BME280;15317;50.360;8.726;2024-01-06T17:57:12;98931.78;;;4.62;100.00
27984;BME280;15317;50.360;8.726;2024-01-06T18:02:20;98938.59;;;4.66;100.00
27984;BME280;15317;50.360;8.726;2024-01-06T18:07:25;98936.03;;;4.65;100.00
27984;BME280;15317;50.360;8.726;2024-01-06T18:12:32;98950.75;;;4.61;100.00
27984;BME280;15317;50.360;8.726;2024-01-06T18:17:35;98957.97;;;4.60;100.00
27984;BME280;15317;50.360;8.726;2024-01-06T18:22:42;98952.59;;;4.60;100.00
27984;BME280;15317;50.360;8.726;2024-01-06T18:27:45;98956.13;;;4.61;100.00
27984;BME280;15317;50.360;8.726;2024-01-06T18:32:48;98963.47;;;4.59;100.00
27984;BME280;15317;50.360;8.726;2024-01-06T18:37:54;98969.44;;;4.62;100.00
27984;BME280;15317;50.360;8.726;2024-01-06T18:42:58;98972.28;;;4.61;100.00
27984;BME280;15317;50.360;8.726;2024-01-06T18:48:01;98972.16;;;4.72;100.00
27984;BME280;15317;50.360;8.726;2024-01-06T18:53:06;98973.69;;;4.65;100.00
27984;BME280;15317;50.360;8.726;2024-01-06T18:58:09;98978.22;;;4.64;100.00
27984;BME280;15317;50.360;8.726;2024-01-06T19:03:13;98977.09;;;4.67;100.00
27984;BME280;15317;50.360;8.726;2024-01-06T19:08:18;98977.41;;;4.64;100.00
27984;BME280;15317;50.360;8.726;2024-01-06T19:13:21;98985.31;;;4.65;100.00
27984;BME280;15317;50.360;8.726;2024-01-06T19:18:24;98986.44;;;4.63;100.00
27984;BME280;15317;50.360;8.726;2024-01-06T19:23:31;98989.13;;;4.63;100.00
27984;BME280;15317;50.360;8.726;2024-01-06T19:28:35;98989.38;;;4.60;100.00
27984;BME280;15317;50.360;8.726;2024-01-06T19:33:38;99000.16;;;4.60;100.00
27984;BME280;15317;50.360;8.726;2024-01-06T19:38:43;99005.66;;;4.58;100.00
27984;BME280;15317;50.360;8.726;2024-01-06T19:43:46;99005.13;;;4.64;100.00
27984;BME280;15317;50.360;8.726;2024-01-06T19:48:49;99004.81;;;4.58;100.00
27984;BME280;15317;50.360;8.726;2024-01-06T19:53:55;99008.22;;;4.60;100.00
27984;BME280;15317;50.360;8.726;2024-01-06T19:58:58;99012.50;;;4.62;100.00
27984;BME280;15317;50.360;8.726;2024-01-06T20:04:04;99006.50;;;4.59;100.00
27984;BME280;15317;50.360;8.726;2024-01-06T20:09:09;99011.31;;;4.55;100.00
27984;BME280;15317;50.360;8.726;2024-01-06T20:14:13;99017.56;;;4.56;100.00
27984;BME280;15317;50.360;8.726;2024-01-06T20:19:16;99018.09;;;4.50;100.00
27984;BME280;15317;50.360;8.726;2024-01-06T20:24:21;99024.56;;;4.47;100.00
27984;BME280;15317;50.360;8.726;2024-01-06T20:29:25;99018.47;;;4.45;100.00
27984;BME280;15317;50.360;8.726;2024-01-06T20:34:28;99024.56;;;4.47;100.00
27984;BME280;15317;50.360;8.726;2024-01-06T20:39:33;99018.88;;;4.41;100.00
27984;BME280;15317;50.360;8.726;2024-01-06T20:44:36;99032.72;;;4.36;100.00
27984;BME280;15317;50.360;8.726;2024-01-06T20:49:40;99030.28;;;4.33;100.00
27984;BME280;15317;50.360;8.726;2024-01-06T20:54:45;99037.44;;;4.23;100.00
27984;BME280;15317;50.360;8.726;2024-01-06T20:59:49;99042.22;;;4.19;100.00
27984;BME280;15317;50.360;8.726;2024-01-06T21:04:54;99038.22;;;4.14;100.00
27984;BME280;15317;50.360;8.726;2024-01-06T21:10:00;99039.06;;;4.14;100.00
27984;BME280;15317;50.360;8.726;2024-01-06T21:15:06;99036.38;;;4.14;100.00
27984;BME280;15317;50.360;8.726;2024-01-06T21:20:10;99049.63;;;4.06;100.00
27984;BME280;15317;50.360;8.726;2024-01-06T21:25:19;99037.88;;;4.07;100.00
27984;BME280;15317;50.360;8.726;2024-01-06T21:30:26;99043.38;;;4.06;100.00
27984;BME280;15317;50.360;8.726;2024-01-06T21:35:30;99052.09;;;3.98;100.00
27984;BME280;15317;50.360;8.726;2024-01-06T21:40:35;99050.53;;;3.95;100.00
27984;BME280;15317;50.360;8.726;2024-01-06T21:45:38;99060.66;;;3.92;100.00
27984;BME280;15317;50.360;8.726;2024-01-06T21:50:41;99058.25;;;3.89;100.00
27984;BME280;15317;50.360;8.726;2024-01-06T21:55:48;99060.47;;;3.84;100.00
27984;BME280;15317;50.360;8.726;2024-01-06T22:00:52;99059.47;;;3.85;100.00
27984;BME280;15317;50.360;8.726;2024-01-06T22:05:56;99072.19;;;3.83;100.00
27984;BME280;15317;50.360;8.726;2024-01-06T22:11:02;99067.41;;;3.86;100.00
27984;BME280;15317;50.360;8.726;2024-01-06T22:16:06;99064.38;;;3.80;100.00
27984;BME280;15317;50.360;8.726;2024-01-06T22:21:09;99070.97;;;3.76;100.00
27984;BME280;15317;50.360;8.726;2024-01-06T22:26:16;99082.00;;;3.73;100.00
27984;BME280;15317;50.360;8.726;2024-01-06T22:31:20;99076.34;;;3.76;100.00
27984;BME280;15317;50.360;8.726;2024-01-06T22:36:24;99076.63;;;3.73;100.00
27984;BME280;15317;50.360;8.726;2024-01-06T22:41:30;99076.00;;;3.69;100.00
27984;BME280;15317;50.360;8.726;2024-01-06T22:46:34;99080.28;;;3.72;100.00
27984;BME280;15317;50.360;8.726;2024-01-06T22:51:38;99080.16;;;3.73;100.00
27984;BME280;15317;50.360;8.726;2024-01-06T22:56:42;99082.75;;;3.64;100.00
27984;BME280;15317;50.360;8.726;2024-01-06T23:01:46;99089.25;;;3.61;100.00
27984;BME280;15317;50.360;8.726;2024-01-06T23:06:50;99087.53;;;3.60;100.00
27984;BME280;15317;50.360;8.726;2024-01-06T23:11:55;99088.13;;;3.64;100.00
27984;BME280;15317;50.360;8.726;2024-01-06T23:17:00;99086.91;;;3.56;100.00
27984;BME280;15317;50.360;8.726;2024-01-06T23:22:03;99095.81;;;3.57;100.00
27984;BME280;15317;50.360;8.726;2024-01-06T23:27:08;99103.75;;;3.58;100.00
27984;BME280;15317;50.360;8.726;2024-01-06T23:32:13;99095.94;;;3.55;100.00
27984;BME280;15317;50.360;8.726;2024-01-06T23:37:17;99109.00;;;3.60;100.00
27984;BME280;15317;50.360;8.726;2024-01-06T23:42:24;99114.25;;;3.50;100.00
27984;BME280;15317;50.360;8.726;2024-01-06T23:47:28;99118.78;;;3.50;100.00
27984;BME280;15317;50.360;8.726;2024-01-06T23:52:31;99123.66;;;3.45;100.00
27984;BME280;15317;50.360;8.726;2024-01-06T23:57:36;99118.78;;;3.50;100.00
